Time;durP1;ratioP1;P1;durP2;ratioP2;P2;SDS_P1;SDS_P2;PMS_P1;PMS_P2;Temp;Humidity;BMP_temperature;BMP_pressure;BME280_temperature;BME280_humidity;BME280_pressure;Samples;Min_cycle;Max_cycle;Signal;HPM_P1;HPM_P2
2023/09/23 00:01:15;;;;;;;2.22;2.00;;;;;;;11.27;100.00;100717.50;6310374;22;20095;-77
2023/09/23 00:03:43;;;;;;;1.80;1.70;;;;;;;11.25;100.00;100712.63;6309683;22;20066;-77
2023/09/23 00:06:10;;;;;;;2.90;1.50;;;;;;;11.23;100.00;100711.56;6311880;22;20061;-77
2023/09/23 00:08:36;;;;;;;1.75;1.50;;;;;;;11.23;100.00;100714.25;6311848;22;20092;-77
2023/09/23 00:11:04;;;;;;;1.58;1.48;;;;;;;11.24;100.00;100726.38;6312231;22;20020;-77
2023/09/23 00:13:32;;;;;;;2.53;1.45;;;;;;;11.22;100.00;100732.16;6311420;22;20511;-77
2023/09/23 00:15:59;;;;;;;1.75;1.40;;;;;;;11.22;100.00;100731.41;6310189;22;20450;-77
2023/09/23 00:18:26;;;;;;;1.92;1.83;;;;;;;11.22;100.00;100737.47;6310639;22;20018;-78
2023/09/23 00:20:53;;;;;;;2.55;1.80;;;;;;;11.24;100.00;100743.09;6309467;22;20473;-77
2023/09/23 00:23:21;;;;;;;3.42;1.92;;;;;;;11.27;100.00;100746.81;6311333;22;20492;-78
2023/09/23 00:25:49;;;;;;;1.95;1.83;;;;;;;11.26;100.00;100746.06;6311823;22;20069;-77
2023/09/23 00:28:15;;;;;;;2.45;2.35;;;;;;;11.22;100.00;100745.47;6311511;22;20071;-77
2023/09/23 00:30:45;;;;;;;3.00;2.60;;;;;;;11.22;100.00;100761.47;6311546;22;20069;-77
2023/09/23 00:33:16;;;;;;;2.95;2.78;;;;;;;11.22;100.00;100764.13;6309486;22;20073;-77
2023/09/23 00:35:44;;;;;;;3.37;3.17;;;;;;;11.20;100.00;100763.09;6310306;22;20115;-77
2023/09/23 00:38:12;;;;;;;5.25;3.28;;;;;;;11.20;100.00;100758.50;6309917;22;20019;-77
2023/09/23 00:40:39;;;;;;;3.80;3.35;;;;;;;11.19;100.00;100765.03;6309829;22;20019;-77
2023/09/23 00:43:11;;;;;;;3.63;3.33;;;;;;;11.20;100.00;100763.09;6311948;22;20141;-77
2023/09/23 00:45:48;;;;;;;4.47;3.38;;;;;;;11.19;100.00;100759.72;6311694;22;20686;-77
2023/09/23 00:48:20;;;;;;;3.45;3.22;;;;;;;11.20;100.00;100757.75;6311038;22;20066;-77
2023/09/23 00:50:50;;;;;;;5.07;3.22;;;;;;;11.19;100.00;100765.03;6312316;22;20512;-77
2023/09/23 00:53:17;;;;;;;3.60;3.38;;;;;;;11.19;100.00;100756.31;6311619;22;20020;-76
2023/09/23 00:55:52;;;;;;;3.25;3.05;;;;;;;11.20;100.00;100763.09;6312071;22;20066;-76
2023/09/23 00:58:21;;;;;;;3.35;2.97;;;;;;;11.16;100.00;100751.84;6311580;22;20100;-76
2023/09/23 01:00:49;;;;;;;3.15;2.75;;;;;;;11.15;100.00;100739.72;6309919;22;20020;-76
2023/09/23 01:03:16;;;;;;;2.90;2.70;;;;;;;11.17;100.00;100748.75;6310982;22;20016;-76
2023/09/23 01:05:46;;;;;;;3.38;2.42;;;;;;;11.20;100.00;100747.09;6311548;22;20019;-76
2023/09/23 01:08:19;;;;;;;2.63;2.45;;;;;;;11.22;100.00;100758.81;6311423;22;20016;-75
2023/09/23 01:10:47;;;;;;;5.47;2.78;;;;;;;11.23;100.00;100748.88;6310187;22;20460;-75
2023/09/23 01:13:14;;;;;;;4.10;3.72;;;;;;;11.22;100.00;100760.72;6309448;22;20023;-76
2023/09/23 01:15:41;;;;;;;3.55;3.25;;;;;;;11.22;100.00;100760.72;6310965;22;20461;-75
2023/09/23 01:18:08;;;;;;;3.42;3.22;;;;;;;11.21;100.00;100764.56;6309377;22;20024;-75
2023/09/23 01:20:37;;;;;;;3.67;3.38;;;;;;;11.17;100.00;100764.75;6311153;22;20016;-76
2023/09/23 01:23:05;;;;;;;4.13;3.78;;;;;;;11.14;100.00;100764.88;6312177;22;20016;-76
2023/09/23 01:25:36;;;;;;;3.53;3.33;;;;;;;11.15;100.00;100763.69;6311560;22;20039;-76
2023/09/23 01:28:11;;;;;;;4.07;3.72;;;;;;;11.12;100.00;100769.91;6312101;22;20056;-76
2023/09/23 01:30:43;;;;;;;4.00;3.70;;;;;;;11.10;100.00;100772.28;6310963;22;20019;-76
2023/09/23 01:33:10;;;;;;;5.97;3.80;;;;;;;11.10;100.00;100772.28;6311342;22;20051;-75
2023/09/23 01:35:37;;;;;;;5.60;4.40;;;;;;;11.12;100.00;100775.25;6309695;22;20319;-76
2023/09/23 01:38:04;;;;;;;4.65;4.28;;;;;;;11.13;100.00;100782.03;6311710;22;20489;-76
2023/09/23 01:40:34;;;;;;;5.18;4.78;;;;;;;11.13;100.00;100782.03;6311646;22;20019;-76
2023/09/23 01:43:01;;;;;;;7.78;5.28;;;;;;;11.12;100.00;100781.31;6311628;22;20022;-76
2023/09/23 01:45:29;;;;;;;5.45;5.00;;;;;;;11.10;100.00;100780.25;6282694;22;20119;-77
2023/09/23 01:47:56;;;;;;;6.85;6.25;;;;;;;11.10;100.00;100793.59;6311845;22;20465;-76
2023/09/23 01:50:24;;;;;;;7.72;6.43;;;;;;;11.11;100.00;100781.75;6308950;22;20024;-76
2023/09/23 01:52:51;;;;;;;8.55;6.55;;;;;;;11.11;100.00;100779.09;6309779;22;20016;-76
2023/09/23 01:55:18;;;;;;;11.80;7.20;;;;;;;11.11;100.00;100795.06;6309679;22;20463;-75
2023/09/23 01:57:48;;;;;;;10.55;7.43;;;;;;;11.10;100.00;100793.59;6309914;22;20020;-76
2023/09/23 02:00:21;;;;;;;7.85;7.15;;;;;;;11.11;100.00;100793.16;6308584;22;20383;-76
2023/09/23 02:02:49;;;;;;;12.18;7.88;;;;;;;11.10;100.00;100806.91;6311690;22;20016;-76
2023/09/23 02:05:18;;;;;;;10.68;9.20;;;;;;;11.09;100.00;100806.16;6309400;22;20103;-76
2023/09/23 02:07:50;;;;;;;9.10;8.18;;;;;;;11.05;100.00;100808.22;6309625;22;20022;-76
2023/09/23 02:10:17;;;;;;;8.98;8.15;;;;;;;11.03;100.00;100802.59;6309935;22;20039;-76
2023/09/23 02:12:45;;;;;;;11.77;9.10;;;;;;;11.02;100.00;100803.78;6310040;22;20450;-76
2023/09/23 02:15:15;;;;;;;12.50;9.38;;;;;;;11.00;100.00;100808.81;6310345;22;20012;-76
2023/09/23 02:17:43;;;;;;;11.07;9.50;;;;;;;10.99;100.00;100809.97;6309737;22;20020;-76
2023/09/23 02:20:24;;;;;;;10.75;9.65;;;;;;;10.99;100.00;100817.97;6310294;22;20015;-76
2023/09/23 02:22:54;;;;;;;11.57;10.38;;;;;;;10.99;100.00;100823.28;6309964;22;20047;-76
2023/09/23 02:25:25;;;;;;;11.07;9.93;;;;;;;10.99;100.00;100818.72;6308591;22;20012;-76
2023/09/23 02:27:53;;;;;;;12.88;10.35;;;;;;;10.99;100.00;100813.38;6311034;22;20016;-76
2023/09/23 02:30:19;;;;;;;14.85;10.95;;;;;;;10.97;100.00;100818.41;6308652;22;20468;-76
2023/09/23 02:32:46;;;;;;;18.48;11.40;;;;;;;10.96;100.00;100808.19;6309517;22;20524;-76
2023/09/23 02:35:15;;;;;;;12.52;11.20;;;;;;;10.96;100.00;100816.94;6309260;22;20098;-78
2023/09/23 02:37:44;;;;;;;12.65;10.98;;;;;;;10.95;100.00;100820.78;6309514;22;20489;-76
2023/09/23 02:40:12;;;;;;;12.68;11.25;;;;;;;10.95;100.00;100822.69;6311085;22;20073;-76
2023/09/23 02:42:46;;;;;;;12.60;11.30;;;;;;;10.93;100.00;100820.47;6308430;22;20020;-76
2023/09/23 02:45:16;;;;;;;12.63;11.23;;;;;;;10.93;100.00;100819.72;6311026;22;20023;-76
2023/09/23 02:47:43;;;;;;;13.60;11.45;;;;;;;10.91;100.00;100824.75;6311163;22;20016;-75
2023/09/23 02:50:17;;;;;;;15.77;11.57;;;;;;;10.90;100.00;100820.59;6310803;22;20015;-76
2023/09/23 02:52:48;;;;;;;13.70;11.70;;;;;;;10.94;100.00;100829.19;6309511;22;20186;-76
2023/09/23 02:55:19;;;;;;;13.77;11.45;;;;;;;10.90;100.00;100831.25;6309467;22;20465;-76
2023/09/23 02:57:49;;;;;;;15.88;12.27;;;;;;;10.89;100.00;100825.19;6310800;22;20046;-76
2023/09/23 03:00:19;;;;;;;16.48;12.68;;;;;;;10.89;100.00;100824.44;6311019;22;20023;-76
2023/09/23 03:02:52;;;;;;;13.85;12.30;;;;;;;10.90;100.00;100826.66;6309221;22;20455;-76
2023/09/23 03:05:25;;;;;;;16.13;11.95;;;;;;;10.88;100.00;100828.28;6308845;22;20019;-76
2023/09/23 03:07:55;;;;;;;17.67;13.50;;;;;;;10.88;100.00;100830.94;6309642;22;20026;-76
2023/09/23 03:10:31;;;;;;;16.08;13.00;;;;;;;10.87;100.00;100843.53;6308938;22;20024;-76
2023/09/23 03:13:06;;;;;;;16.30;11.82;;;;;;;10.89;100.00;100845.75;6309080;22;20040;-76
2023/09/23 03:15:37;;;;;;;18.52;12.30;;;;;;;10.87;100.00;100843.53;6310925;22;20020;-76
2023/09/23 03:18:05;;;;;;;15.73;13.43;;;;;;;10.85;100.00;100845.88;6311174;22;20019;-76
2023/09/23 03:20:34;;;;;;;18.17;13.75;;;;;;;10.83;100.00;100842.91;6310272;22;20519;-77
2023/09/23 03:23:01;;;;;;;15.43;12.35;;;;;;;10.82;100.00;100846.00;6308962;22;20019;-76
2023/09/23 03:25:28;;;;;;;16.70;12.32;;;;;;;10.78;100.00;100843.50;6308441;22;20015;-76
2023/09/23 03:27:55;;;;;;;17.00;12.48;;;;;;;10.77;100.00;100842.03;6308586;22;20016;-76
2023/09/23 03:30:23;;;;;;;19.65;12.73;;;;;;;10.76;100.00;100845.88;6308294;22;20086;-76
2023/09/23 03:32:50;;;;;;;16.92;13.10;;;;;;;10.76;100.00;100842.47;6309610;22;20098;-76
2023/09/23 03:35:20;;;;;;;15.80;12.55;;;;;;;10.73;100.00;100838.75;6311891;22;20019;-76
2023/09/23 03:37:49;;;;;;;16.52;12.85;;;;;;;10.73;100.00;100844.06;6312390;22;20012;-76
2023/09/23 03:40:20;;;;;;;19.20;13.27;;;;;;;10.71;100.00;100840.38;6310072;22;20026;-76
2023/09/23 03:42:48;;;;;;;19.60;12.75;;;;;;;10.70;100.00;100844.94;6312410;22;20103;-76
2023/09/23 03:45:15;;;;;;;14.80;13.13;;;;;;;10.68;100.00;100847.31;6311695;22;20019;-76
2023/09/23 03:47:41;;;;;;;18.85;14.07;;;;;;;10.68;100.00;100858.69;6311888;22;20016;-76
2023/09/23 03:50:08;;;;;;;14.57;12.73;;;;;;;10.68;100.00;100860.63;6311844;22;20046;-76
2023/09/23 03:52:36;;;;;;;16.77;13.07;;;;;;;10.65;100.00;100854.25;6309986;22;20016;-76
2023/09/23 03:55:03;;;;;;;17.30;12.93;;;;;;;10.65;100.00;100859.56;6309777;22;20047;-76
2023/09/23 03:57:30;;;;;;;15.30;12.60;;;;;;;10.64;100.00;100855.41;6309475;22;20483;-76
2023/09/23 03:59:56;;;;;;;14.05;12.25;;;;;;;10.63;100.00;100863.84;6311963;22;20026;-77
2023/09/23 04:02:23;;;;;;;23.13;12.18;;;;;;;10.64;100.00;100858.09;6309536;22;20020;-76
2023/09/23 04:04:53;;;;;;;13.60;12.10;;;;;;;10.66;100.00;100871.69;6284593;22;20050;-76
2023/09/23 04:07:21;;;;;;;16.00;12.82;;;;;;;10.66;100.00;100876.28;6309782;22;20016;-76
2023/09/23 04:09:47;;;;;;;19.98;12.25;;;;;;;10.66;100.00;100886.94;6309981;22;20022;-76
2023/09/23 04:12:14;;;;;;;13.82;12.18;;;;;;;10.64;100.00;100886.63;6309812;22;20020;-75
2023/09/23 04:14:41;;;;;;;15.60;12.65;;;;;;;10.64;100.00;100889.28;6309984;22;20067;-76
2023/09/23 04:17:08;;;;;;;15.80;12.02;;;;;;;10.60;100.00;100894.72;6310336;22;20012;-76
2023/09/23 04:19:34;;;;;;;16.67;12.00;;;;;;;10.60;100.00;100892.06;6311989;22;20019;-76
2023/09/23 04:22:01;;;;;;;20.80;11.90;;;;;;;10.60;100.00;100900.06;6311999;22;20087;-75
2023/09/23 04:24:27;;;;;;;14.95;12.05;;;;;;;10.56;100.00;100907.44;6309414;22;20015;-75
2023/09/23 04:26:59;;;;;;;14.38;11.27;;;;;;;10.55;100.00;100902.53;6310126;22;20047;-75
2023/09/23 04:29:25;;;;;;;16.52;12.07;;;;;;;10.53;100.00;100910.22;6309806;22;20478;-77
2023/09/23 04:31:52;;;;;;;16.77;12.02;;;;;;;10.53;100.00;100913.63;6312255;22;20094;-75
2023/09/23 04:34:19;;;;;;;15.80;12.45;;;;;;;10.51;100.00;100910.66;6311357;22;20496;-74
2023/09/23 04:36:46;;;;;;;16.17;11.85;;;;;;;10.50;100.00;100921.72;6312001;22;20015;-75
2023/09/23 04:39:13;;;;;;;12.13;10.80;;;;;;;10.49;100.00;100920.25;6311132;22;20046;-75
2023/09/23 04:41:40;;;;;;;13.32;10.25;;;;;;;10.48;100.00;100916.09;6311906;22;20016;-75
2023/09/23 04:44:07;;;;;;;12.70;10.50;;;;;;;10.48;100.00;100929.41;6309759;22;20094;-75
2023/09/23 04:46:34;;;;;;;11.48;10.25;;;;;;;10.46;100.00;100923.75;6311632;22;20022;-74
2023/09/23 04:49:02;;;;;;;12.32;10.23;;;;;;;10.44;100.00;100928.78;6312036;22;20016;-75
2023/09/23 04:51:29;;;;;;;15.95;10.40;;;;;;;10.42;100.00;100937.19;6311234;22;20094;-75
2023/09/23 04:53:56;;;;;;;17.00;10.15;;;;;;;10.41;100.00;100943.69;6311299;22;20023;-75
2023/09/23 04:56:22;;;;;;;14.52;9.55;;;;;;;10.41;100.00;100941.03;6311303;22;20079;-75
2023/09/23 04:58:50;;;;;;;11.23;9.68;;;;;;;10.41;100.00;100942.94;6311856;22;20019;-76
2023/09/23 05:01:18;;;;;;;12.38;9.98;;;;;;;10.41;100.00;100943.69;6311610;22;20086;-76
2023/09/23 05:03:45;;;;;;;13.25;9.77;;;;;;;10.41;100.00;100949.00;6311928;22;20015;-76
2023/09/23 05:06:12;;;;;;;14.32;9.93;;;;;;;10.41;100.00;100951.69;6311648;22;20012;-75
2023/09/23 05:08:39;;;;;;;14.38;9.63;;;;;;;10.40;100.00;100947.53;6310789;22;20016;-76
2023/09/23 05:11:06;;;;;;;10.52;9.10;;;;;;;10.40;100.00;100952.84;6311925;22;20012;-76
2023/09/23 05:13:33;;;;;;;11.63;9.50;;;;;;;10.43;100.00;100949.31;6310052;22;20012;-76
2023/09/23 05:16:00;;;;;;;11.52;9.65;;;;;;;10.45;100.00;100964.88;6311931;22;20050;-76
2023/09/23 05:18:27;;;;;;;12.70;10.68;;;;;;;10.47;100.00;100968.59;6311283;22;20023;-75
2023/09/23 05:20:55;;;;;;;15.80;10.82;;;;;;;10.49;100.00;100973.47;6309806;22;20020;-76
2023/09/23 05:23:23;;;;;;;21.25;12.65;;;;;;;10.51;100.00;100976.44;6308952;22;20437;-76
2023/09/23 05:25:50;;;;;;;17.77;12.60;;;;;;;10.53;100.00;100980.16;6312104;22;20015;-76
2023/09/23 05:28:16;;;;;;;23.08;13.10;;;;;;;10.54;100.00;100975.59;6311256;22;20401;-76
2023/09/23 05:30:43;;;;;;;18.65;11.55;;;;;;;10.57;100.00;100986.13;6311364;22;20047;-75
2023/09/23 05:33:10;;;;;;;14.20;10.38;;;;;;;10.57;100.00;100990.69;6311455;22;20016;-76
2023/09/23 05:35:38;;;;;;;14.20;10.32;;;;;;;10.58;100.00;100986.84;6310896;22;20016;-76
2023/09/23 05:38:04;;;;;;;17.77;10.20;;;;;;;10.58;100.00;100989.50;6310981;22;20023;-75
2023/09/23 05:40:36;;;;;;;14.18;9.52;;;;;;;10.59;100.00;100991.75;6283987;22;20020;-75
2023/09/23 05:43:03;;;;;;;11.32;9.80;;;;;;;10.61;100.00;100992.06;6311982;22;20012;-76
2023/09/23 05:45:29;;;;;;;12.07;9.40;;;;;;;10.62;100.00;100998.88;6310601;22;20018;-76
2023/09/23 05:47:56;;;;;;;12.13;9.23;;;;;;;10.65;100.00;100994.59;6311574;22;20070;-76
2023/09/23 05:50:23;;;;;;;13.35;10.05;;;;;;;10.67;100.00;101008.22;6310962;22;20019;-75
2023/09/23 05:52:52;;;;;;;11.90;8.88;;;;;;;10.68;100.00;101012.38;6309557;22;20039;-75
2023/09/23 05:55:18;;;;;;;9.95;8.48;;;;;;;10.69;100.00;101013.88;6308996;22;20050;-75
2023/09/23 05:57:46;;;;;;;10.35;8.60;;;;;;;10.71;100.00;101024.81;6310094;22;20491;-75
2023/09/23 06:00:19;;;;;;;11.43;8.73;;;;;;;10.74;100.00;101023.22;6311390;22;20086;-78
2023/09/23 06:02:47;;;;;;;13.20;8.32;;;;;;;10.74;100.00;101034.63;6311973;22;20158;-77
2023/09/23 06:05:14;;;;;;;9.18;7.60;;;;;;;10.76;100.00;101037.59;6311329;22;20016;-76
2023/09/23 06:07:44;;;;;;;10.20;7.35;;;;;;;10.80;100.00;101045.44;6308895;22;20097;-76
2023/09/23 06:10:11;;;;;;;8.73;7.75;;;;;;;10.83;100.00;101055.22;6311421;22;20453;-75
2023/09/23 06:12:38;;;;;;;12.48;7.72;;;;;;;10.84;100.00;101059.38;6311399;22;20298;-77
2023/09/23 06:15:05;;;;;;;7.90;7.10;;;;;;;10.89;100.00;101061.47;6311367;22;20022;-76
2023/09/23 06:17:35;;;;;;;7.10;6.47;;;;;;;10.92;100.00;101057.94;6309388;22;20450;-76
2023/09/23 06:20:03;;;;;;;14.35;6.88;;;;;;;10.96;100.00;101058.56;6309281;22;20015;-77
2023/09/23 06:22:33;;;;;;;8.88;6.75;;;;;;;11.03;100.00;101061.00;6310583;22;20016;-76
2023/09/23 06:25:01;;;;;;;9.73;6.90;;;;;;;11.10;100.00;101068.00;6311314;22;20066;-78
2023/09/23 06:27:28;;;;;;;10.07;6.65;;;;;;;11.16;100.00;101067.00;6310949;22;20070;-79
2023/09/23 06:29:54;;;;;;;7.03;6.20;;;;;;;11.20;100.00;101072.19;6309768;22;20466;-80
2023/09/23 06:32:21;;;;;;;10.98;6.63;;;;;;;11.26;100.00;101067.78;6310809;22;20434;-77
2023/09/23 06:34:48;;;;;;;6.75;5.97;;;;;;;11.46;100.00;101073.53;6311025;22;20353;-76
2023/09/23 06:37:15;;;;;;;7.20;6.45;;;;;;;12.10;100.00;101073.03;6311460;22;20020;-78
2023/09/23 06:39:42;;;;;;;8.63;6.40;;;;;;;12.48;100.00;101076.06;6311087;22;20027;-77
2023/09/23 06:42:08;;;;;;;10.43;6.07;;;;;;;12.48;100.00;101080.66;6311278;22;20434;-79
2023/09/23 06:44:35;;;;;;;11.65;5.30;;;;;;;12.31;100.00;101090.91;6311019;22;20023;-76
2023/09/23 06:47:01;;;;;;;8.10;5.82;;;;;;;12.15;100.00;101088.47;6309728;22;20102;-77
2023/09/23 06:49:29;;;;;;;7.90;5.10;;;;;;;12.13;100.00;101090.84;6309947;22;20016;-77
2023/09/23 06:51:55;;;;;;;9.75;5.53;;;;;;;12.11;100.00;101093.22;6309867;22;20027;-76
2023/09/23 06:54:22;;;;;;;8.05;5.07;;;;;;;12.24;100.00;101101.84;6310361;22;20079;-76
2023/09/23 06:56:49;;;;;;;7.22;4.53;;;;;;;12.25;100.00;101106.75;6311598;22;20089;-79
2023/09/23 06:59:15;;;;;;;6.22;4.70;;;;;;;12.28;100.00;101111.19;6310038;22;20073;-77
2023/09/23 07:01:42;;;;;;;9.50;4.95;;;;;;;12.24;100.00;101113.28;6308851;22;20020;-76
2023/09/23 07:04:09;;;;;;;5.68;4.70;;;;;;;12.23;100.00;101114.44;6308356;22;20012;-76
2023/09/23 07:06:36;;;;;;;9.32;4.75;;;;;;;12.26;100.00;101116.25;6310274;22;20027;-77
2023/09/23 07:09:05;;;;;;;7.85;4.63;;;;;;;12.39;100.00;101118.81;6309132;22;20469;-77
2023/09/23 07:11:32;;;;;;;5.85;4.95;;;;;;;12.43;100.00;101124.72;6311018;22;20016;-77
2023/09/23 07:14:00;;;;;;;5.10;4.35;;;;;;;12.42;100.00;101133.16;6311240;22;20050;-76
2023/09/23 07:16:27;;;;;;;6.43;4.50;;;;;;;12.34;100.00;101133.47;6310378;22;20025;-77
2023/09/23 07:18:54;;;;;;;6.88;4.35;;;;;;;12.33;100.00;101133.91;6309193;22;20091;-77
2023/09/23 07:21:21;;;;;;;6.15;4.57;;;;;;;12.50;100.00;101135.13;6309981;22;20067;-77
2023/09/23 07:23:47;;;;;;;6.65;4.55;;;;;;;12.71;100.00;101135.44;6311103;22;20020;-80
2023/09/23 07:26:21;;;;;;;5.53;4.35;;;;;;;12.76;100.00;101143.63;6309348;22;20099;-80
2023/09/23 07:28:51;;;;;;;4.53;4.07;;;;;;;12.72;100.00;101151.03;6309372;22;20480;-82
2023/09/23 07:31:18;;;;;;;5.72;4.35;;;;;;;12.77;100.00;101155.78;6310738;22;20012;-78
2023/09/23 07:33:45;;;;;;;7.88;4.47;;;;;;;12.96;100.00;101151.19;6309422;22;20417;-76
2023/09/23 07:36:13;;;;;;;4.50;4.10;;;;;;;13.00;100.00;101157.88;6309920;22;20438;-78
2023/09/23 07:38:40;;;;;;;4.50;4.13;;;;;;;13.20;100.00;101149.41;6308444;22;20023;-79
2023/09/23 07:41:07;;;;;;;7.93;4.65;;;;;;;13.34;100.00;101161.44;6310478;22;20083;-79
2023/09/23 07:43:34;;;;;;;7.30;4.63;;;;;;;13.51;100.00;101167.22;6282967;22;20366;-79
2023/09/23 07:46:01;;;;;;;5.75;4.20;;;;;;;13.60;100.00;101167.91;6308868;22;20024;-79
2023/09/23 07:48:27;;;;;;;6.38;4.22;;;;;;;13.62;100.00;101178.91;6309528;22;20039;-80
2023/09/23 07:50:54;;;;;;;7.60;4.03;;;;;;;13.57;100.00;101187.56;6310835;22;20024;-79
2023/09/23 07:53:22;;;;;;;4.45;3.80;;;;;;;13.47;100.00;101196.78;6307954;22;20102;-78
2023/09/23 07:55:48;;;;;;;5.70;3.92;;;;;;;13.40;100.00;101196.34;6308993;22;20030;-78
2023/09/23 07:58:15;;;;;;;3.90;3.58;;;;;;;13.39;100.00;101198.28;6308417;22;20451;-78
2023/09/23 08:00:43;;;;;;;4.80;4.00;;;;;;;13.33;100.00;101200.81;6309761;22;20089;-78
2023/09/23 08:03:09;;;;;;;6.90;3.80;;;;;;;13.34;100.00;101209.56;6307457;22;20438;-78
2023/09/23 08:05:36;;;;;;;9.23;4.07;;;;;;;13.27;100.00;101207.94;6310198;22;20016;-83
2023/09/23 08:08:03;;;;;;;6.43;4.05;;;;;;;13.32;100.00;101219.97;6310258;22;20016;-78
2023/09/23 08:10:31;;;;;;;6.40;3.78;;;;;;;13.52;100.00;101222.94;6309736;22;20078;-79
2023/09/23 08:12:57;;;;;;;4.97;3.78;;;;;;;13.71;100.00;101230.91;6308608;22;20020;-78
2023/09/23 08:15:24;;;;;;;8.73;4.18;;;;;;;13.91;100.00;101234.59;6309339;22;20091;-79
2023/09/23 08:17:50;;;;;;;4.55;4.13;;;;;;;14.04;100.00;101242.44;6307989;22;20016;-79
2023/09/23 08:20:18;;;;;;;6.35;4.55;;;;;;;14.18;100.00;101238.38;6310511;22;20012;-79
2023/09/23 08:22:46;;;;;;;6.95;3.97;;;;;;;14.42;100.00;101243.81;6309426;22;20421;-80
2023/09/23 08:25:17;;;;;;;6.22;3.65;;;;;;;14.75;100.00;101254.53;6311593;22;20016;-79
2023/09/23 08:27:44;;;;;;;;;;;;;;;14.95;100.00;101258.09;6312965;22;20450;-78
2023/09/23 08:30:12;;;;;;;9.80;3.60;;;;;;;14.85;100.00;101259.34;6311964;22;19919;-78
2023/09/23 08:32:39;;;;;;;3.58;3.28;;;;;;;14.78;100.00;101259.72;6311267;22;20091;-77
2023/09/23 08:35:07;;;;;;;5.70;3.63;;;;;;;14.70;100.00;101263.19;6311361;22;20024;-78
2023/09/23 08:37:35;;;;;;;9.90;3.72;;;;;;;14.67;100.00;101267.50;6310639;22;20022;-78
2023/09/23 08:40:11;;;;;;;6.30;3.95;;;;;;;14.89;100.00;101272.59;6312159;22;20024;-78
2023/09/23 08:42:39;;;;;;;6.10;3.53;;;;;;;14.95;100.00;101276.13;6309976;22;20016;-79
2023/09/23 08:45:09;;;;;;;3.30;3.00;;;;;;;14.89;99.87;101283.31;6311559;22;20471;-77
2023/09/23 08:47:37;;;;;;;6.95;4.53;;;;;;;14.79;100.00;101285.31;6310117;22;20016;-78
2023/09/23 08:50:08;;;;;;;5.15;3.00;;;;;;;14.80;100.00;101291.41;6311828;22;20392;-78
2023/09/23 08:52:35;;;;;;;6.35;3.30;;;;;;;14.90;100.00;101298.94;6309937;22;20023;-78
2023/09/23 08:55:07;;;;;;;5.50;3.00;;;;;;;14.96;99.90;101307.09;6310007;22;20058;-77
2023/09/23 08:57:34;;;;;;;8.13;3.28;;;;;;;14.94;100.00;101304.13;6311403;22;20429;-77
2023/09/23 09:00:01;;;;;;;6.40;3.35;;;;;;;14.92;100.00;101301.91;6311304;22;20011;-78
2023/09/23 09:02:29;;;;;;;3.15;2.85;;;;;;;14.91;100.00;101300.41;6309706;22;20484;-78
2023/09/23 09:04:57;;;;;;;6.35;3.30;;;;;;;14.90;100.00;101293.56;6312052;22;20020;-76
2023/09/23 09:07:25;;;;;;;3.80;3.28;;;;;;;14.98;100.00;101296.66;6310768;22;20015;-78
2023/09/23 09:09:52;;;;;;;6.38;3.33;;;;;;;15.12;100.00;101309.41;6311510;22;20015;-77
2023/09/23 09:12:20;;;;;;;3.70;3.08;;;;;;;15.21;100.00;101312.00;6310963;22;20071;-77
2023/09/23 09:14:51;;;;;;;7.32;3.28;;;;;;;15.18;99.57;101312.19;6309451;22;20024;-79
2023/09/23 09:17:21;;;;;;;6.32;3.33;;;;;;;15.11;99.74;101318.63;6311293;22;20449;-81
2023/09/23 09:19:49;;;;;;;7.43;3.83;;;;;;;15.21;99.81;101327.34;6311661;22;20015;-82
2023/09/23 09:22:17;;;;;;;6.45;3.00;;;;;;;15.28;99.11;101327.75;6311869;22;20484;-82
2023/09/23 09:24:46;;;;;;;5.35;3.03;;;;;;;15.37;99.21;101332.31;6312073;22;20019;-81
2023/09/23 09:27:14;;;;;;;5.47;3.10;;;;;;;15.48;98.02;101339.84;6311674;22;20460;-82
2023/09/23 09:29:42;;;;;;;4.28;3.17;;;;;;;15.52;98.15;101345.78;6310637;22;20035;-82
2023/09/23 09:32:10;;;;;;;6.45;3.13;;;;;;;15.53;97.40;101355.31;6311016;22;20039;-82
2023/09/23 09:34:47;;;;;;;6.38;3.25;;;;;;;15.43;97.05;101351.94;6311653;22;20091;-80
2023/09/23 09:37:14;;;;;;;5.60;2.90;;;;;;;15.34;97.52;101358.13;6309885;22;20015;-79
2023/09/23 09:39:51;;;;;;;4.95;3.03;;;;;;;15.33;97.87;101356.63;6311182;22;20095;-78
2023/09/23 09:42:27;;;;;;;6.90;2.88;;;;;;;15.42;97.82;101347.78;6309893;22;20066;-82
2023/09/23 09:44:55;;;;;;;5.13;2.88;;;;;;;15.46;97.47;101359.09;6312039;22;20020;-84
2023/09/23 09:47:23;;;;;;;5.07;3.00;;;;;;;15.57;97.31;101366.66;6309954;22;20023;-82
2023/09/23 09:49:54;;;;;;;3.97;2.97;;;;;;;15.61;96.04;101354.50;6312396;22;20094;-81
2023/09/23 09:52:23;;;;;;;4.22;2.88;;;;;;;15.67;96.11;101360.72;6311310;22;20087;-81
2023/09/23 09:54:53;;;;;;;4.57;2.80;;;;;;;15.76;95.13;101353.81;6312204;22;20015;-84
2023/09/23 09:57:26;;;;;;;4.85;2.72;;;;;;;16.05;97.51;101363.84;6308740;22;20109;-81
2023/09/23 09:59:59;;;;;;;5.45;3.30;;;;;;;16.19;95.13;101355.81;6312237;22;20020;-81
2023/09/23 10:02:27;;;;;;;9.40;3.30;;;;;;;16.14;93.93;101353.75;6309728;22;20019;-82
2023/09/23 10:05:02;;;;;;;4.13;2.90;;;;;;;16.13;94.61;101362.28;6312255;22;20047;-81
2023/09/23 10:07:51;;;;;;;5.15;2.80;;;;;;;16.10;96.21;101363.94;6312379;22;20038;-82
2023/09/23 10:10:31;;;;;;;3.78;2.40;;;;;;;15.98;94.97;101367.66;6312277;22;20079;-81
2023/09/23 10:13:07;;;;;;;4.32;3.00;;;;;;;15.94;96.48;101369.78;6313239;22;20022;-78
2023/09/23 10:15:37;;;;;;;3.50;3.20;;;;;;;15.91;97.46;101371.44;6311433;22;20104;-78
2023/09/23 10:18:16;;;;;;;9.07;3.40;;;;;;;15.93;97.69;101376.34;6310011;22;20037;-77
2023/09/23 10:20:56;;;;;;;5.47;3.10;;;;;;;15.84;97.31;101384.47;6311123;22;20012;-78
2023/09/23 10:23:22;;;;;;;3.28;2.60;;;;;;;15.89;99.28;101384.59;6310299;22;20015;-79
2023/09/23 10:25:52;;;;;;;6.70;3.22;;;;;;;15.96;99.41;101380.81;6309126;22;20020;-77
2023/09/23 10:28:23;;;;;;;3.45;3.00;;;;;;;16.02;99.71;101387.72;6308138;22;20047;-79
2023/09/23 10:31:04;;;;;;;5.10;3.20;;;;;;;16.28;99.86;101396.00;6311652;22;20016;-77
2023/09/23 10:33:34;;;;;;;4.53;3.38;;;;;;;16.52;98.81;101385.16;6310839;22;20475;-79
2023/09/23 10:36:03;;;;;;;4.68;3.05;;;;;;;16.47;96.81;101393.13;6310939;22;20034;-78
2023/09/23 10:38:35;;;;;;;6.55;3.28;;;;;;;16.32;96.53;101395.81;6310736;22;20011;-77
2023/09/23 10:41:02;;;;;;;10.25;3.08;;;;;;;16.34;98.55;101398.78;6310360;22;20453;-77
2023/09/23 10:43:29;;;;;;;5.28;3.08;;;;;;;16.40;97.99;101401.56;6310255;22;20011;-77
2023/09/23 10:45:57;;;;;;;4.28;3.35;;;;;;;16.46;97.50;101408.50;6311227;22;20023;-76
2023/09/23 10:48:28;;;;;;;2.63;2.42;;;;;;;16.52;97.09;101413.97;6310544;22;20018;-77
2023/09/23 10:50:55;;;;;;;3.60;2.10;;;;;;;16.51;94.51;101412.50;6311535;22;20012;-78
2023/09/23 10:53:22;;;;;;;3.67;1.92;;;;;;;16.48;91.86;101416.84;6308933;22;20460;-77
2023/09/23 10:55:51;;;;;;;2.75;1.77;;;;;;;16.48;93.14;101421.47;6310744;22;20031;-78
2023/09/23 10:58:18;;;;;;;3.28;1.70;;;;;;;16.47;92.06;101418.06;6310531;22;20012;-76
2023/09/23 11:00:46;;;;;;;2.38;1.88;;;;;;;16.52;91.83;101424.72;6310428;22;20022;-78
2023/09/23 11:03:17;;;;;;;1.90;1.80;;;;;;;16.77;92.16;101429.56;6309261;22;20015;-77
2023/09/23 11:05:45;;;;;;;3.35;1.70;;;;;;;16.88;88.77;101434.34;6283871;22;20066;-78
2023/09/23 11:08:13;;;;;;;1.98;1.60;;;;;;;16.88;87.46;101434.34;6312683;22;20020;-79
2023/09/23 11:10:45;;;;;;;2.95;1.58;;;;;;;16.95;89.31;101439.34;6309947;22;20023;-78
2023/09/23 11:13:13;;;;;;;3.60;1.70;;;;;;;16.99;89.00;101448.72;6310822;22;20066;-77
2023/09/23 11:15:45;;;;;;;7.07;1.63;;;;;;;17.09;89.20;101446.66;6312369;22;20044;-79
2023/09/23 11:18:15;;;;;;;2.55;1.50;;;;;;;17.17;89.03;101450.47;6309349;22;20058;-78
2023/09/23 11:20:45;;;;;;;2.20;1.40;;;;;;;17.30;89.63;101453.56;6310720;22;20079;-78